Time;durP1;ratioP1;P1;durP2;ratioP2;P2;SDS_P1;SDS_P2;PMS_P1;PMS_P2;Temp;Humidity;BMP_temperature;BMP_pressure;BME280_temperature;BME280_humidity;BME280_pressure;Samples;Min_cycle;Max_cycle;Signal;HPM_P1;HPM_P2
2022/09/17 00:01:27;;;;;;;18.97;3.27;;;;;;;-143.84;63.36;45007.19;5110116;28;20522;-69
2022/09/17 00:03:56;;;;;;;7.43;3.43;;;;;;;-143.84;63.56;45056.69;5108696;28;20996;-68
2022/09/17 00:06:24;;;;;;;12.60;3.30;;;;;;;-143.84;63.50;45005.28;5109672;28;20515;-69
2022/09/17 00:08:54;;;;;;;18.63;2.70;;;;;;;-143.84;63.22;45007.19;5109640;28;20468;-68
2022/09/17 00:11:24;;;;;;;10.63;3.70;;;;;;;-143.84;63.57;45003.38;5109721;28;20447;-68
2022/09/17 00:13:52;;;;;;;10.87;3.20;;;;;;;-143.84;63.70;44997.66;5110068;28;20470;-68
2022/09/17 00:16:28;;;;;;;14.63;2.97;;;;;;;-143.84;63.47;45028.13;5109910;28;20431;-69
2022/09/17 00:18:57;;;;;;;12.93;3.00;;;;;;;-143.84;63.28;45016.69;5109791;28;20679;-68
2022/09/17 00:21:24;;;;;;;18.03;3.10;;;;;;;-143.84;63.64;45016.69;5109102;28;20837;-69
2022/09/17 00:23:56;;;;;;;18.50;2.63;;;;;;;-143.84;63.36;45037.66;5109492;28;20995;-68
2022/09/17 00:26:23;;;;;;;19.50;3.47;;;;;;;-143.84;63.17;45052.88;5109793;28;20844;-69
2022/09/17 00:28:52;;;;;;;14.00;3.07;;;;;;;-143.84;62.49;45024.31;5109495;28;20443;-68
2022/09/17 00:31:19;;;;;;;8.77;3.17;;;;;;;-143.84;63.10;45016.69;5110093;28;20443;-73
2022/09/17 00:33:47;;;;;;;16.07;3.20;;;;;;;-143.84;63.00;45005.28;5109510;28;20483;-73
2022/09/17 00:36:14;;;;;;;11.23;3.40;;;;;;;-143.84;62.91;45007.19;5110282;27;20435;-73
2022/09/17 00:38:42;;;;;;;11.57;3.07;;;;;;;-143.84;63.59;44995.75;5110226;28;20439;-73
2022/09/17 00:41:10;;;;;;;19.53;3.10;;;;;;;-143.84;63.82;44999.56;5109661;28;20455;-73
2022/09/17 00:43:41;;;;;;;16.47;3.80;;;;;;;-143.84;64.55;45003.38;5092001;28;20517;-73
2022/09/17 00:46:26;;;;;;;18.67;4.43;;;;;;;-143.84;64.31;45012.88;5089400;28;20957;-73
2022/09/17 00:48:54;;;;;;;8.87;3.53;;;;;;;-143.84;64.19;44976.72;5089647;28;20954;-73
2022/09/17 00:51:27;;;;;;;13.10;3.30;;;;;;;-143.84;64.33;45010.97;5089977;28;20489;-73
2022/09/17 00:53:56;;;;;;;23.63;3.50;;;;;;;-143.84;64.28;44999.56;5089143;28;20444;-73
2022/09/17 00:56:27;;;;;;;10.90;3.17;;;;;;;-143.84;64.77;44993.84;5088499;28;20439;-73
2022/09/17 00:58:55;;;;;;;20.33;3.80;;;;;;;-143.84;64.04;45010.97;5089531;28;20435;-73
2022/09/17 01:01:22;;;;;;;18.20;2.90;;;;;;;-143.84;64.31;45018.59;5089310;28;20447;-73
2022/09/17 01:03:50;;;;;;;16.93;2.70;;;;;;;-143.84;64.28;44991.94;5089507;28;21007;-73
2022/09/17 01:06:25;;;;;;;13.17;3.53;;;;;;;-143.84;63.88;45033.84;5089348;28;20431;-73
2022/09/17 01:09:13;;;;;;;15.10;3.50;;;;;;;-143.84;63.94;45030.03;5089539;28;20828;-73
2022/09/17 01:12:08;;;;;;;15.80;3.53;;;;;;;-143.84;63.73;44995.75;5089348;28;20519;-73
2022/09/17 01:14:56;;;;;;;16.53;3.10;;;;;;;-143.84;63.79;45009.09;5091232;28;21234;-73
2022/09/17 01:17:30;;;;;;;16.77;3.90;;;;;;;-143.84;63.73;45014.78;5093362;28;20937;-73
2022/09/17 01:20:32;;;;;;;7.40;3.03;;;;;;;-143.84;62.94;45009.09;5093208;28;20497;-73
2022/09/17 01:23:22;;;;;;;8.10;2.80;;;;;;;-143.84;62.40;45020.50;5093097;28;20447;-73
2022/09/17 01:26:01;;;;;;;13.43;2.80;;;;;;;-143.84;62.45;45030.03;5093175;28;20447;-73
2022/09/17 01:28:39;;;;;;;16.63;3.33;;;;;;;-143.84;61.63;45010.97;5092880;28;20428;-73
2022/09/17 01:31:24;;;;;;;18.10;2.37;;;;;;;-143.84;61.55;44997.66;5093080;28;20522;-73
2022/09/17 01:34:00;;;;;;;10.80;3.50;;;;;;;-143.84;61.79;44997.66;5092600;28;20525;-73
2022/09/17 01:36:42;;;;;;;13.87;3.27;;;;;;;-143.84;61.49;44995.75;5092759;28;20979;-74
2022/09/17 01:39:18;;;;;;;15.57;3.23;;;;;;;-143.84;61.60;44999.56;5093019;28;20492;-73
2022/09/17 01:41:54;;;;;;;13.47;3.87;;;;;;;-143.84;61.22;45003.38;5093089;28;20423;-73
2022/09/17 01:44:32;;;;;;;11.80;3.23;;;;;;;-143.84;61.39;44999.56;5092506;28;20481;-73
2022/09/17 01:47:06;;;;;;;8.77;3.50;;;;;;;-143.84;61.45;45016.69;5092064;28;20496;-73
2022/09/17 01:49:36;;;;;;;13.53;3.30;;;;;;;-143.84;60.69;44995.75;5092857;28;20443;-73
2022/09/17 01:52:05;;;;;;;13.93;3.30;;;;;;;-143.84;60.71;45009.09;5092788;28;21298;-74
2022/09/17 01:54:36;;;;;;;7.60;2.57;;;;;;;-143.84;60.06;45005.28;5075099;28;20976;-73
2022/09/17 01:57:09;;;;;;;11.00;2.60;;;;;;;-143.84;60.02;45009.09;5092548;28;20432;-73
2022/09/17 01:59:40;;;;;;;19.10;2.90;;;;;;;-143.84;59.92;44991.94;5092726;28;20436;-74
2022/09/17 02:02:14;;;;;;;13.70;2.83;;;;;;;-143.84;59.70;45024.31;5091281;28;20444;-73
2022/09/17 02:04:47;;;;;;;16.60;3.60;;;;;;;-143.84;60.00;45012.88;5090968;28;20483;-73
2022/09/17 02:07:20;;;;;;;6.60;2.73;;;;;;;-143.84;59.99;44991.94;5091710;28;20460;-74
2022/09/17 02:09:54;;;;;;;22.80;3.80;;;;;;;-143.84;59.93;44982.41;5092139;28;20440;-74
2022/09/17 02:12:26;;;;;;;6.50;2.57;;;;;;;-143.84;60.39;44990.03;5092184;28;20560;-73
2022/09/17 02:14:57;;;;;;;9.77;2.90;;;;;;;-143.84;59.39;45007.19;5092246;28;20447;-73
2022/09/17 02:17:32;;;;;;;11.40;3.00;;;;;;;-143.84;59.23;44988.13;5092274;28;20517;-73
2022/09/17 02:20:00;;;;;;;15.90;3.13;;;;;;;-143.84;58.51;45022.41;5092032;28;20443;-73
2022/09/17 02:22:35;;;;;;;5.67;3.03;;;;;;;-143.84;59.09;45007.19;5091899;28;20512;-73
2022/09/17 02:25:07;;;;;;;13.57;3.03;;;;;;;-143.84;59.22;45018.59;5090876;28;20479;-74
2022/09/17 02:27:44;;;;;;;17.77;3.50;;;;;;;-143.84;59.31;44999.56;5090527;28;20451;-74
2022/09/17 02:30:12;;;;;;;7.10;2.50;;;;;;;-143.84;58.94;45026.22;5091158;28;20451;-74
2022/09/17 02:32:42;;;;;;;14.03;3.50;;;;;;;-143.84;59.06;45030.03;5090931;28;20485;-74
2022/09/17 02:35:10;;;;;;;14.90;3.20;;;;;;;-143.84;59.38;44988.13;5091593;28;20450;-73
2022/09/17 02:37:37;;;;;;;11.37;3.20;;;;;;;-143.84;59.86;44990.03;5091710;28;21008;-73
2022/09/17 02:40:05;;;;;;;9.60;2.90;;;;;;;-143.84;59.78;45009.09;5090650;28;20448;-73
2022/09/17 02:42:44;;;;;;;13.50;2.37;;;;;;;-143.84;59.81;45020.50;5090853;28;20440;-72
2022/09/17 02:45:20;;;;;;;12.10;3.43;;;;;;;-143.84;59.61;45007.19;5091140;28;20475;-73
2022/09/17 02:48:08;;;;;;;7.60;2.90;;;;;;;-143.84;59.85;44991.94;5091640;28;20432;-74
2022/09/17 02:50:59;;;;;;;10.83;2.70;;;;;;;-143.84;60.81;45010.97;5091535;28;20501;-73
2022/09/17 02:53:38;;;;;;;11.73;3.03;;;;;;;-143.84;61.72;44993.84;5091412;28;20436;-73
2022/09/17 02:56:14;;;;;;;20.00;3.70;;;;;;;-143.84;60.44;44995.75;5091538;28;20442;-73
2022/09/17 02:58:52;;;;;;;15.33;3.23;;;;;;;-143.84;61.06;45018.59;5091283;28;20444;-73
2022/09/17 03:01:25;;;;;;;15.80;3.50;;;;;;;-143.84;60.92;45010.97;5091673;28;20784;-73
2022/09/17 03:03:58;;;;;;;8.83;3.20;;;;;;;-143.84;61.01;45016.69;5091351;28;20482;-73
2022/09/17 03:06:26;;;;;;;15.70;3.60;;;;;;;-143.84;60.98;45014.78;5091271;28;20470;-73
2022/09/17 03:08:53;;;;;;;11.27;3.47;;;;;;;-143.84;60.52;45001.47;5090809;28;20959;-73
2022/09/17 03:11:20;;;;;;;17.43;4.10;;;;;;;-143.84;60.24;45033.84;5089855;28;20440;-73
2022/09/17 03:13:47;;;;;;;14.93;2.90;;;;;;;-143.84;60.81;45001.47;5090754;28;20501;-73
2022/09/17 03:16:15;;;;;;;22.77;4.73;;;;;;;-143.84;61.50;45005.28;5073261;28;20447;-73
2022/09/17 03:18:42;;;;;;;14.70;3.50;;;;;;;-143.84;61.26;45020.50;5091083;28;20455;-73
2022/09/17 03:21:11;;;;;;;12.30;4.27;;;;;;;-143.84;61.54;45022.41;5091441;28;20460;-73
2022/09/17 03:23:39;;;;;;;16.80;3.47;;;;;;;-143.84;61.72;45007.19;5090758;28;20510;-73
2022/09/17 03:26:06;;;;;;;12.07;3.33;;;;;;;-143.84;61.52;45031.94;5090794;28;21026;-73
2022/09/17 03:28:34;;;;;;;22.73;2.93;;;;;;;-143.84;61.47;45028.13;5090692;28;20439;-73
2022/09/17 03:31:01;;;;;;;11.40;3.60;;;;;;;-143.84;60.99;45018.59;5090682;28;20448;-73
2022/09/17 03:33:28;;;;;;;6.23;2.83;;;;;;;-143.84;61.00;45024.31;5090554;28;20479;-73
2022/09/17 03:35:55;;;;;;;9.70;2.90;;;;;;;-143.84;60.98;44991.94;5090445;28;20957;-73
2022/09/17 03:38:24;;;;;;;26.00;4.10;;;;;;;-143.84;60.82;45018.59;5090512;28;20513;-73
2022/09/17 03:40:58;;;;;;;23.10;4.37;;;;;;;-143.84;60.54;45018.59;5090704;28;20447;-73
2022/09/17 03:43:25;;;;;;;24.80;4.20;;;;;;;-143.84;60.61;45007.19;5090677;28;20445;-73
2022/09/17 03:45:53;;;;;;;14.03;3.20;;;;;;;-143.84;60.61;45037.66;5090210;28;20484;-72
2022/09/17 03:48:20;;;;;;;10.83;2.80;;;;;;;-143.84;61.01;44995.75;5090132;28;20493;-73
2022/09/17 03:50:47;;;;;;;7.53;2.90;;;;;;;-143.84;61.17;45030.03;5090194;28;20501;-73
2022/09/17 03:53:15;;;;;;;16.57;3.27;;;;;;;-143.84;60.97;44995.75;5090363;28;20440;-73
2022/09/17 03:55:43;;;;;;;19.37;3.33;;;;;;;-143.84;60.80;45026.22;5090016;28;20431;-73
2022/09/17 03:58:11;;;;;;;13.67;4.10;;;;;;;-143.84;60.93;45016.69;5090168;28;21014;-74
2022/09/17 04:00:38;;;;;;;17.63;4.13;;;;;;;-143.84;60.86;45003.38;5090032;28;20508;-73
2022/09/17 04:03:05;;;;;;;8.40;3.90;;;;;;;-143.84;61.21;45033.84;5090116;28;20442;-73
2022/09/17 04:05:33;;;;;;;9.60;3.23;;;;;;;-143.84;61.29;45030.03;5090168;28;20480;-72
2022/09/17 04:08:00;;;;;;;8.93;2.80;;;;;;;-143.84;61.24;45014.78;5089974;28;20443;-73
2022/09/17 04:10:28;;;;;;;9.53;3.10;;;;;;;-143.84;60.99;45022.41;5089910;28;20436;-73
2022/09/17 04:12:56;;;;;;;10.63;3.70;;;;;;;-143.84;60.89;45022.41;5089873;28;20448;-73
2022/09/17 04:15:23;;;;;;;23.60;4.53;;;;;;;-143.84;60.75;45016.69;5089757;28;20505;-73
2022/09/17 04:17:50;;;;;;;14.73;3.67;;;;;;;-143.84;60.71;44997.66;5090210;28;20420;-73
2022/09/17 04:20:18;;;;;;;13.23;3.00;;;;;;;-143.84;61.35;45047.16;5090137;28;20436;-72
2022/09/17 04:22:45;;;;;;;8.17;3.70;;;;;;;-143.84;61.01;45001.47;5089853;28;20489;-73
2022/09/17 04:25:12;;;;;;;34.03;4.83;;;;;;;-143.84;61.25;45010.97;5089136;28;20540;-73
2022/09/17 04:27:39;;;;;;;18.33;3.40;;;;;;;-143.84;61.14;45033.84;5089707;28;20503;-73
2022/09/17 04:30:09;;;;;;;9.20;3.00;;;;;;;-143.84;61.33;45010.97;5090011;28;20834;-73
2022/09/17 04:32:36;;;;;;;12.10;3.23;;;;;;;-143.84;60.26;44997.66;5105280;28;20447;-69
2022/09/17 04:35:03;;;;;;;16.77;3.10;;;;;;;-143.84;59.65;45020.50;5088831;28;20444;-68
2022/09/17 04:37:31;;;;;;;16.57;3.57;;;;;;;-143.84;59.14;45031.94;5088344;28;21026;-68
2022/09/17 04:39:58;;;;;;;12.13;2.57;;;;;;;-143.84;57.82;44999.56;5089226;28;20479;-69
2022/09/17 04:42:25;;;;;;;15.27;3.50;;;;;;;-143.84;56.88;45030.03;5088812;28;20436;-68
2022/09/17 04:44:52;;;;;;;8.00;2.77;;;;;;;-143.84;56.11;44999.56;5088198;28;20483;-69
2022/09/17 04:47:21;;;;;;;9.30;2.60;;;;;;;-143.84;55.31;45010.97;5088468;28;20452;-68
2022/09/17 04:49:48;;;;;;;9.37;2.47;;;;;;;-143.84;53.74;44995.75;5088394;28;20448;-69
2022/09/17 04:52:15;;;;;;;7.70;2.83;;;;;;;-143.84;51.98;45014.78;5089154;28;20854;-69
2022/09/17 04:54:42;;;;;;;7.23;2.50;;;;;;;-143.84;50.93;45001.47;5089182;28;20856;-70
2022/09/17 04:57:10;;;;;;;14.03;3.03;;;;;;;-143.84;50.19;44967.19;5089068;28;20894;-70
2022/09/17 04:59:37;;;;;;;13.43;3.23;;;;;;;-143.84;50.62;44984.31;5089091;28;20439;-68
2022/09/17 05:02:04;;;;;;;13.90;3.20;;;;;;;-143.84;49.03;44999.56;5088612;28;20436;-69
2022/09/17 05:04:33;;;;;;;14.50;3.30;;;;;;;-143.84;48.77;44991.94;5088994;28;20556;-68
2022/09/17 05:07:00;;;;;;;13.43;3.10;;;;;;;-143.84;48.21;44982.41;5088864;28;20448;-69
2022/09/17 05:09:27;;;;;;;9.83;3.37;;;;;;;-143.84;47.83;44965.28;5088787;28;20436;-68
2022/09/17 05:11:54;;;;;;;16.43;3.33;;;;;;;-143.84;47.33;44984.31;5088860;28;20444;-69
2022/09/17 05:14:21;;;;;;;14.00;3.57;;;;;;;-143.84;46.55;44976.72;5088676;28;20501;-69
2022/09/17 05:16:48;;;;;;;7.77;3.30;;;;;;;-143.84;45.27;44917.69;5088961;28;20436;-69
2022/09/17 05:19:16;;;;;;;9.23;2.83;;;;;;;-143.84;44.66;44946.25;5088842;28;20958;-69
2022/09/17 05:21:45;;;;;;;11.60;3.13;;;;;;;-143.84;43.80;44946.25;5088807;28;20505;-69
2022/09/17 05:24:12;;;;;;;11.47;3.40;;;;;;;-143.84;43.79;44957.66;5104768;28;20451;-69
2022/09/17 05:26:39;;;;;;;20.43;4.53;;;;;;;-143.84;43.62;44946.25;5109077;28;20476;-69
2022/09/17 05:29:06;;;;;;;12.43;3.50;;;;;;;-143.84;43.48;44911.97;5108894;28;20542;-69
2022/09/17 05:31:33;;;;;;;9.13;3.20;;;;;;;-143.84;42.09;44944.34;5108930;28;20787;-69
2022/09/17 05:34:00;;;;;;;10.50;2.50;;;;;;;-143.84;41.62;44932.91;5108810;28;20483;-70
2022/09/17 05:36:27;;;;;;;18.70;3.33;;;;;;;-143.84;41.05;44934.81;5108807;28;20909;-70
2022/09/17 05:38:56;;;;;;;12.40;3.53;;;;;;;-143.84;40.99;44921.50;5108814;28;20431;-69
2022/09/17 05:41:24;;;;;;;16.03;3.60;;;;;;;-143.84;40.35;44925.31;5106907;28;20508;-68
2022/09/17 05:43:51;;;;;;;20.17;3.30;;;;;;;-143.84;40.11;44944.34;5108818;28;20518;-70
2022/09/17 05:46:18;;;;;;;12.67;2.63;;;;;;;-143.84;40.47;44919.59;5108309;28;20593;-70
2022/09/17 05:48:45;;;;;;;14.00;3.60;;;;;;;-143.84;40.74;44891.03;5109230;28;20427;-69
2022/09/17 05:51:12;;;;;;;13.50;2.90;;;;;;;-143.84;40.27;44919.59;5108785;28;21005;-70
2022/09/17 05:53:39;;;;;;;16.63;4.30;;;;;;;-143.84;40.12;44917.69;5109123;28;20504;-70
2022/09/17 05:56:08;;;;;;;11.80;2.90;;;;;;;-143.84;40.40;44925.31;5109208;28;20917;-69
2022/09/17 05:58:35;;;;;;;14.10;3.10;;;;;;;-143.84;40.15;44913.88;5108832;28;20434;-69
2022/09/17 06:01:02;;;;;;;15.77;2.83;;;;;;;-143.84;40.28;44913.88;5109079;28;20435;-69
2022/09/17 06:03:29;;;;;;;14.03;3.60;;;;;;;-143.84;40.14;44929.09;5111562;28;20431;-70
2022/09/17 06:05:58;;;;;;;12.40;4.33;;;;;;;-143.84;40.14;44906.25;5112009;28;21119;-72
2022/09/17 06:08:26;;;;;;;15.83;3.57;;;;;;;-143.84;39.81;44908.16;5112141;28;20423;-73
2022/09/17 06:10:54;;;;;;;12.50;3.43;;;;;;;-143.84;40.00;44885.31;5111769;28;20435;-73
2022/09/17 06:13:23;;;;;;;23.43;3.80;;;;;;;-143.84;40.51;44915.78;5098185;28;20447;-72
2022/09/17 06:15:51;;;;;;;20.73;4.23;;;;;;;-143.84;40.14;44911.97;5091848;28;20450;-73
2022/09/17 06:18:18;;;;;;;18.40;3.80;;;;;;;-143.84;40.29;44923.41;5092016;28;20519;-70
2022/09/17 06:20:53;;;;;;;17.33;4.57;;;;;;;-143.84;39.44;44894.84;5073716;28;20436;-72
2022/09/17 06:23:21;;;;;;;14.63;4.50;;;;;;;-143.84;39.49;44908.16;5092228;28;20462;-71
2022/09/17 06:25:54;;;;;;;22.93;4.47;;;;;;;-143.84;39.05;44900.53;5091957;28;21060;-69
2022/09/17 06:28:23;;;;;;;11.63;3.83;;;;;;;-143.84;39.35;44889.13;5091732;28;20435;-70
2022/09/17 06:30:53;;;;;;;11.43;3.00;;;;;;;-143.84;39.23;44904.34;5090950;28;20938;-70
2022/09/17 06:33:20;;;;;;;15.23;3.60;;;;;;;-143.84;39.58;44898.66;5091250;28;20480;-70
2022/09/17 06:35:47;;;;;;;17.70;2.90;;;;;;;-143.84;38.87;44879.59;5091575;28;20454;-70
2022/09/17 06:38:15;;;;;;;10.50;3.50;;;;;;;-143.84;38.40;44858.66;5090117;28;20447;-70
2022/09/17 06:40:42;;;;;;;14.10;3.30;;;;;;;-143.84;38.03;44881.50;5090198;28;20627;-71
2022/09/17 06:43:09;;;;;;;21.83;4.80;;;;;;;-143.84;37.80;44889.13;5089673;28;20792;-70
2022/09/17 06:45:38;;;;;;;9.07;2.80;;;;;;;-143.84;37.72;44900.53;5089135;28;20566;-70
2022/09/17 06:48:06;;;;;;;13.00;3.20;;;;;;;-143.84;37.01;44889.13;5088627;28;20451;-70
2022/09/17 06:50:33;;;;;;;15.97;3.50;;;;;;;-143.84;37.07;44871.97;5090026;28;20432;-70
2022/09/17 06:53:00;;;;;;;11.90;3.63;;;;;;;-143.84;37.27;44856.75;5090275;28;20462;-70
2022/09/17 06:55:28;;;;;;;15.73;3.63;;;;;;;-143.84;37.50;44868.19;5090858;28;20505;-70
2022/09/17 06:57:59;;;;;;;9.83;3.10;;;;;;;-143.84;36.62;44864.38;5091075;28;20539;-69
2022/09/17 07:00:26;;;;;;;11.77;3.33;;;;;;;-143.84;36.80;44864.38;5090375;28;20470;-69
2022/09/17 07:02:59;;;;;;;14.20;4.40;;;;;;;-143.84;36.83;44871.97;5090936;28;20417;-70
2022/09/17 07:05:28;;;;;;;10.90;3.60;;;;;;;-143.84;36.47;44849.13;5090545;28;20471;-70
2022/09/17 07:07:55;;;;;;;7.27;2.63;;;;;;;-143.84;35.88;44875.78;5090615;28;20435;-70
2022/09/17 07:10:23;;;;;;;12.03;3.07;;;;;;;-143.84;36.23;44854.84;5090585;28;20470;-70
2022/09/17 07:12:50;;;;;;;12.90;3.37;;;;;;;-143.84;35.50;44881.50;5090197;28;20439;-69
2022/09/17 07:15:17;;;;;;;14.53;3.30;;;;;;;-143.84;37.14;44849.13;5090072;28;20443;-70
2022/09/17 07:17:45;;;;;;;6.53;2.40;;;;;;;-143.84;36.25;44887.22;5090604;28;20509;-69
2022/09/17 07:20:14;;;;;;;10.27;2.23;;;;;;;-143.84;36.96;44873.88;5090880;28;20803;-69
2022/09/17 07:22:41;;;;;;;8.17;2.70;;;;;;;-143.84;36.04;44849.13;5107146;28;20859;-69
2022/09/17 07:25:10;;;;;;;11.40;2.50;;;;;;;-143.84;36.61;44851.03;5110495;28;20435;-70
2022/09/17 07:27:37;;;;;;;15.03;3.30;;;;;;;-143.84;36.33;44877.69;5110740;28;20458;-69
2022/09/17 07:30:05;;;;;;;17.70;2.70;;;;;;;-143.84;36.90;44885.31;5110544;28;20431;-69
2022/09/17 07:32:32;;;;;;;10.83;3.33;;;;;;;-143.84;36.24;44858.66;5109541;28;20442;-69
2022/09/17 07:34:59;;;;;;;7.93;3.00;;;;;;;-143.84;36.48;44877.69;5110248;28;20503;-69
2022/09/17 07:37:28;;;;;;;6.30;2.87;;;;;;;-143.84;36.77;44856.75;5110467;28;20973;-70
2022/09/17 07:39:56;;;;;;;8.37;2.60;;;;;;;-143.84;36.23;44877.69;5110462;28;20519;-70
2022/09/17 07:42:23;;;;;;;6.77;2.70;;;;;;;-143.84;35.85;44851.03;5110335;28;20446;-70
2022/09/17 07:44:50;;;;;;;10.03;2.60;;;;;;;-143.84;35.53;44877.69;5109833;28;20435;-70
2022/09/17 07:47:17;;;;;;;12.23;3.20;;;;;;;-143.84;36.58;44854.84;5110381;28;20555;-69
2022/09/17 07:49:44;;;;;;;15.60;2.97;;;;;;;-143.84;35.90;44860.56;5110167;28;20442;-70
2022/09/17 07:52:11;;;;;;;13.70;2.90;;;;;;;-143.84;35.76;44841.53;5110063;28;20442;-71
2022/09/17 07:54:40;;;;;;;15.87;3.43;;;;;;;-143.84;36.44;44852.94;5109204;28;20439;-70
2022/09/17 07:57:07;;;;;;;10.83;3.27;;;;;;;-143.84;35.48;44862.47;5109848;28;20431;-70
2022/09/17 07:59:34;;;;;;;8.50;2.37;;;;;;;-143.84;34.73;44873.88;5109581;28;21000;-70
2022/09/17 08:02:01;;;;;;;20.67;4.10;;;;;;;-143.84;34.89;44866.28;5110007;28;20451;-69
2022/09/17 08:04:28;;;;;;;6.47;2.30;;;;;;;-143.84;35.36;44833.91;5109983;28;20957;-69
2022/09/17 08:06:55;;;;;;;10.53;2.60;;;;;;;-143.84;34.88;44873.88;5109704;28;20470;-69
2022/09/17 08:09:23;;;;;;;7.43;2.50;;;;;;;-143.84;34.93;44845.31;5109696;28;20435;-69
2022/09/17 08:11:51;;;;;;;10.30;2.77;;;;;;;-143.84;35.25;44851.03;5109968;28;20990;-69
2022/09/17 08:14:18;;;;;;;7.57;3.20;;;;;;;-143.84;35.96;44830.09;5109587;28;20443;-70
2022/09/17 08:16:46;;;;;;;12.33;3.17;;;;;;;-143.84;35.53;44843.44;5110318;28;21220;-69
2022/09/17 08:19:14;;;;;;;21.93;3.77;;;;;;;-143.84;36.80;44832.00;5109809;28;20545;-70
2022/09/17 08:21:41;;;;;;;12.87;3.23;;;;;;;-143.84;36.45;44864.38;5109692;28;20443;-70
2022/09/17 08:24:08;;;;;;;11.50;3.13;;;;;;;-143.84;36.04;44837.72;5109127;28;20439;-69
2022/09/17 08:26:35;;;;;;;8.80;3.03;;;;;;;-143.84;35.86;44866.28;5109524;27;20462;-73
2022/09/17 08:29:04;;;;;;;10.43;3.13;;;;;;;-143.84;35.28;44812.97;5108978;28;20435;-72
2022/09/17 08:31:32;;;;;;;10.33;3.97;;;;;;;-143.84;35.79;44822.47;5109159;28;20503;-73
2022/09/17 08:34:00;;;;;;;12.53;3.00;;;;;;;-143.84;35.44;44845.31;5108892;28;20467;-73
2022/09/17 08:36:27;;;;;;;6.73;2.67;;;;;;;-143.84;35.09;44839.63;5109456;28;20494;-73
2022/09/17 08:38:55;;;;;;;16.33;3.40;;;;;;;-143.84;35.65;44843.44;5109557;28;20484;-73
2022/09/17 08:41:28;;;;;;;17.13;3.57;;;;;;;-143.84;35.22;44849.13;5105356;28;20447;-73
2022/09/17 08:44:09;;;;;;;7.57;3.00;;;;;;;-143.84;35.10;44837.72;5107989;28;20451;-73
2022/09/17 08:46:44;;;;;;;14.73;3.90;;;;;;;-143.84;35.03;44832.00;5108459;28;21035;-72
2022/09/17 08:49:20;;;;;;;13.30;3.43;;;;;;;-143.84;35.32;44826.28;5108664;28;20956;-73
2022/09/17 08:52:01;;;;;;;6.53;2.93;;;;;;;-143.84;36.12;44847.22;5108015;28;20516;-73
2022/09/17 08:54:37;;;;;;;11.73;3.10;;;;;;;-143.84;35.41;44847.22;5108664;28;20991;-73
2022/09/17 08:57:16;;;;;;;13.07;3.67;;;;;;;-143.84;35.49;44837.72;5109073;28;20496;-73
2022/09/17 08:59:49;;;;;;;8.17;3.13;;;;;;;-143.84;35.71;44847.22;5108237;28;20450;-73
2022/09/17 09:02:32;;;;;;;20.70;3.50;;;;;;;-143.84;36.09;44847.22;5105716;28;20443;-73
2022/09/17 09:05:03;;;;;;;12.93;3.93;;;;;;;-143.84;36.21;44841.53;5106945;28;20446;-73
2022/09/17 09:07:36;;;;;;;16.50;4.00;;;;;;;-143.84;36.25;44870.09;5108454;28;20483;-73
2022/09/17 09:10:15;;;;;;;12.70;3.70;;;;;;;-143.84;36.56;44849.13;5108115;28;21036;-73
2022/09/17 09:12:44;;;;;;;10.13;2.77;;;;;;;-143.84;36.67;44887.22;5104349;28;20956;-73
2022/09/17 09:15:23;;;;;;;9.90;2.93;;;;;;;-143.84;36.67;44847.22;5107768;28;20458;-74
2022/09/17 09:17:53;;;;;;;8.67;2.90;;;;;;;-143.84;37.48;44875.78;5104944;28;20878;-74
2022/09/17 09:20:28;;;;;;;12.80;3.40;;;;;;;-143.84;37.83;44870.09;5107908;28;20793;-74
2022/09/17 09:22:57;;;;;;;9.90;3.53;;;;;;;-143.84;37.68;44845.31;5107995;28;20450;-74
2022/09/17 09:25:27;;;;;;;18.43;4.10;;;;;;;-143.84;39.21;44847.22;5107595;28;20810;-74
2022/09/17 09:28:04;;;;;;;9.07;3.67;;;;;;;-143.84;39.09;44858.66;5107807;28;20467;-74
2022/09/17 09:30:47;;;;;;;9.47;3.37;;;;;;;-143.84;39.62;44873.88;5107582;28;20473;-74
2022/09/17 09:33:17;;;;;;;8.57;3.57;;;;;;;-143.84;40.42;44889.13;5104421;28;20571;-74
2022/09/17 09:35:45;;;;;;;11.47;3.63;;;;;;;-143.84;41.00;44896.75;5106142;28;20462;-74
2022/09/17 09:38:22;;;;;;;13.33;4.53;;;;;;;-143.84;41.26;44875.78;5111001;28;20454;-74
2022/09/17 09:40:55;;;;;;;14.23;4.50;;;;;;;-143.84;42.22;44873.88;5107984;28;20449;-74
2022/09/17 09:43:28;;;;;;;9.37;3.50;;;;;;;-143.84;42.43;44877.69;5111721;28;20447;-74
2022/09/17 09:46:13;;;;;;;16.00;3.70;;;;;;;-143.84;42.71;44883.41;5111695;28;20449;-74
2022/09/17 09:48:54;;;;;;;8.53;3.43;;;;;;;-143.84;42.16;44889.13;5111895;28;20478;-74
2022/09/17 09:51:33;;;;;;;11.43;3.90;;;;;;;-143.84;42.03;44892.94;5111422;28;20454;-74
2022/09/17 09:54:12;;;;;;;9.80;4.10;;;;;;;-143.84;43.11;44875.78;5112136;28;20450;-75
2022/09/17 09:56:51;;;;;;;12.87;3.83;;;;;;;-143.84;41.73;44889.13;5111987;28;20442;-74
2022/09/17 09:59:19;;;;;;;18.33;3.77;;;;;;;-143.84;42.24;44870.09;5112713;28;20499;-74
2022/09/17 10:01:48;;;;;;;11.47;3.90;;;;;;;-143.84;42.89;44915.78;5111186;28;20849;-73
2022/09/17 10:04:18;;;;;;;13.10;4.00;;;;;;;-143.84;44.04;44915.78;5111089;28;20451;-73
2022/09/17 10:06:46;;;;;;;10.67;3.90;;;;;;;-143.84;45.98;44919.59;5110945;28;20577;-74
2022/09/17 10:09:16;;;;;;;11.90;4.13;;;;;;;-143.84;47.38;44894.84;5107728;28;20447;-74
2022/09/17 10:11:58;;;;;;;15.97;3.70;;;;;;;-143.84;45.50;44917.69;5107563;28;20809;-73
2022/09/17 10:14:28;;;;;;;7.50;3.30;;;;;;;-143.84;45.63;44879.59;5111017;28;20477;-74
2022/09/17 10:17:21;;;;;;;27.27;4.57;;;;;;;-143.84;47.80;44910.06;5111054;28;20910;-74
2022/09/17 10:20:15;;;;;;;16.67;4.40;;;;;;;-143.84;49.02;44910.06;5100083;28;20454;-74
2022/09/17 10:22:44;;;;;;;13.33;3.70;;;;;;;-143.84;48.68;44925.31;5111122;28;20512;-73
2022/09/17 10:25:31;;;;;;;11.03;4.43;;;;;;;-143.84;48.17;44931.00;5111150;28;20457;-73
2022/09/17 10:28:02;;;;;;;19.10;4.63;;;;;;;-143.84;48.97;44919.59;5111380;28;20482;-73
2022/09/17 10:30:29;;;;;;;19.40;5.20;;;;;;;-143.84;48.97;44883.41;5111057;28;21080;-73
2022/09/17 10:33:28;;;;;;;16.50;4.30;;;;;;;-143.84;49.32;44911.97;5111145;28;20504;-73
2022/09/17 10:36:03;;;;;;;15.10;5.23;;;;;;;-143.84;51.21;44904.34;5107099;28;20511;-73
2022/09/17 10:38:33;;;;;;;12.40;3.87;;;;;;;-143.84;50.32;44906.25;5110887;28;20458;-73
2022/09/17 10:41:15;;;;;;;18.50;4.60;;;;;;;-143.84;51.62;44925.31;5110865;28;20443;-73
2022/09/17 10:43:42;;;;;;;9.40;4.43;;;;;;;-143.84;51.21;44913.88;5110589;28;20447;-74
2022/09/17 10:46:16;;;;;;;16.07;5.63;;;;;;;-143.84;53.67;44915.78;5110319;28;20454;-74
2022/09/17 10:48:53;;;;;;;12.07;4.33;;;;;;;-143.84;53.21;44915.78;5109155;28;20948;-73
2022/09/17 10:51:24;;;;;;;17.80;4.20;;;;;;;-143.84;52.72;44940.53;5110331;28;20450;-74
2022/09/17 10:54:25;;;;;;;13.60;4.77;;;;;;;-143.84;55.03;44911.97;5107378;28;20455;-73
2022/09/17 10:56:57;;;;;;;8.30;3.80;;;;;;;-143.84;55.55;44913.88;5107852;28;20948;-74
2022/09/17 10:59:51;;;;;;;12.57;4.60;;;;;;;-143.84;56.58;44942.44;5107758;28;20462;-73
2022/09/17 11:02:59;;;;;;;12.67;4.93;;;;;;;-143.84;55.08;44925.31;5109929;28;20451;-73
2022/09/17 11:05:38;;;;;;;14.97;4.97;;;;;;;-143.84;57.61;44917.69;5107377;28;20455;-73
2022/09/17 11:08:14;;;;;;;11.73;4.20;;;;;;;-143.84;56.90;44923.41;5108129;28;20574;-73
2022/09/17 11:10:51;;;;;;;21.23;5.43;;;;;;;-143.84;56.04;44917.69;5109452;28;20467;-73
2022/09/17 11:13:26;;;;;;;17.53;4.97;;;;;;;-143.84;56.34;44896.75;5109117;28;20979;-74
2022/09/17 11:16:10;;;;;;;8.40;4.43;;;;;;;-143.84;55.43;44950.06;5106648;28;20442;-73
2022/09/17 11:18:41;;;;;;;13.90;4.20;;;;;;;-143.84;56.05;44906.25;5108541;28;20454;-74
2022/09/17 11:21:44;;;;;;;14.70;5.03;;;;;;;-143.84;55.25;44925.31;5109993;28;20461;-74
2022/09/17 11:24:47;;;;;;;13.40;4.80;;;;;;;-143.84;53.44;44900.53;5062264;28;20494;-74
2022/09/17 11:27:33;;;;;;;20.13;4.60;;;;;;;-143.84;52.73;44932.91;5108363;28;20483;-74
2022/09/17 11:30:08;;;;;;;21.40;4.90;;;;;;;-143.84;52.08;44896.75;5107185;28;20512;-74
2022/09/17 11:33:05;;;;;;;19.20;4.53;;;;;;;-143.84;51.72;44908.16;5109244;28;20446;-74